sensor_id;sensor_type;location;lat;lon;timestamp;temperature;humidity
10306;DHT22;5198;52.382;9.020;2022-08-19T00:03:15;21.40;94.60
10306;DHT22;5198;52.382;9.020;2022-08-19T00:07:18;21.30;95.00
10306;DHT22;5198;52.382;9.020;2022-08-19T00:11:21;21.30;96.00
10306;DHT22;5198;52.382;9.020;2022-08-19T00:15:27;21.30;95.30
10306;DHT22;5198;52.382;9.020;2022-08-19T00:19:30;21.20;95.80
10306;DHT22;5198;52.382;9.020;2022-08-19T00:23:33;21.20;95.50
10306;DHT22;5198;52.382;9.020;2022-08-19T00:27:37;21.10;95.60
10306;DHT22;5198;52.382;9.020;2022-08-19T00:31:42;21.10;95.70
10306;DHT22;5198;52.382;9.020;2022-08-19T00:35:45;21.10;95.40
10306;DHT22;5198;52.382;9.020;2022-08-19T00:39:56;21.00;95.00
10306;DHT22;5198;52.382;9.020;2022-08-19T00:44:00;21.00;95.80
10306;DHT22;5198;52.382;9.020;2022-08-19T00:48:05;21.00;97.30
10306;DHT22;5198;52.382;9.020;2022-08-19T00:52:16;21.00;97.90
10306;DHT22;5198;52.382;9.020;2022-08-19T00:56:21;20.90;98.60
10306;DHT22;5198;52.382;9.020;2022-08-19T01:00:25;20.80;98.10
10306;DHT22;5198;52.382;9.020;2022-08-19T01:04:30;20.70;98.70
10306;DHT22;5198;52.382;9.020;2022-08-19T01:08:33;20.70;98.80
10306;DHT22;5198;52.382;9.020;2022-08-19T01:12:36;20.60;99.10
10306;DHT22;5198;52.382;9.020;2022-08-19T01:16:39;20.50;99.90
10306;DHT22;5198;52.382;9.020;2022-08-19T01:20:44;20.40;99.40
10306;DHT22;5198;52.382;9.020;2022-08-19T01:24:49;20.30;98.70
10306;DHT22;5198;52.382;9.020;2022-08-19T01:28:53;20.20;98.10
10306;DHT22;5198;52.382;9.020;2022-08-19T01:33:01;20.10;97.50
10306;DHT22;5198;52.382;9.020;2022-08-19T01:37:07;20.00;97.30
10306;DHT22;5198;52.382;9.020;2022-08-19T01:41:13;19.90;98.00
10306;DHT22;5198;52.382;9.020;2022-08-19T01:45:16;19.80;98.90
10306;DHT22;5198;52.382;9.020;2022-08-19T01:49:20;19.70;98.10
10306;DHT22;5198;52.382;9.020;2022-08-19T01:53:24;19.60;97.20
10306;DHT22;5198;52.382;9.020;2022-08-19T01:57:35;19.50;97.00
10306;DHT22;5198;52.382;9.020;2022-08-19T02:01:38;19.50;96.70
10306;DHT22;5198;52.382;9.020;2022-08-19T02:05:42;19.40;98.20
10306;DHT22;5198;52.382;9.020;2022-08-19T02:09:45;19.40;99.90
10306;DHT22;5198;52.382;9.020;2022-08-19T02:13:50;19.30;99.40
10306;DHT22;5198;52.382;9.020;2022-08-19T02:21:56;19.20;97.80
10306;DHT22;5198;52.382;9.020;2022-08-19T02:25:58;19.10;97.60
10306;DHT22;5198;52.382;9.020;2022-08-19T02:30:03;19.00;97.00
10306;DHT22;5198;52.382;9.020;2022-08-19T02:34:06;19.00;96.70
10306;DHT22;5198;52.382;9.020;2022-08-19T02:38:09;18.90;96.60
10306;DHT22;5198;52.382;9.020;2022-08-19T02:42:30;18.90;96.60
10306;DHT22;5198;52.382;9.020;2022-08-19T02:46:35;18.90;96.80
10306;DHT22;5198;52.382;9.020;2022-08-19T02:50:38;18.80;96.70
10306;DHT22;5198;52.382;9.020;2022-08-19T02:54:53;18.80;96.20
10306;DHT22;5198;52.382;9.020;2022-08-19T02:58:58;18.70;96.50
10306;DHT22;5198;52.382;9.020;2022-08-19T03:03:03;18.70;96.10
10306;DHT22;5198;52.382;9.020;2022-08-19T03:07:06;18.70;96.40
10306;DHT22;5198;52.382;9.020;2022-08-19T03:11:12;18.60;96.50
10306;DHT22;5198;52.382;9.020;2022-08-19T03:15:15;18.60;96.10
10306;DHT22;5198;52.382;9.020;2022-08-19T03:19:20;18.60;96.30
10306;DHT22;5198;52.382;9.020;2022-08-19T03:23:23;18.60;97.20
10306;DHT22;5198;52.382;9.020;2022-08-19T03:27:26;18.50;97.50
10306;DHT22;5198;52.382;9.020;2022-08-19T03:35:46;18.40;96.40
10306;DHT22;5198;52.382;9.020;2022-08-19T03:39:49;18.40;96.60
10306;DHT22;5198;52.382;9.020;2022-08-19T03:43:52;18.40;96.20
10306;DHT22;5198;52.382;9.020;2022-08-19T03:47:56;18.30;96.10
10306;DHT22;5198;52.382;9.020;2022-08-19T03:52:00;18.30;95.90
10306;DHT22;5198;52.382;9.020;2022-08-19T03:56:03;18.30;96.20
10306;DHT22;5198;52.382;9.020;2022-08-19T04:00:06;18.20;96.00
10306;DHT22;5198;52.382;9.020;2022-08-19T04:04:14;18.20;95.80
10306;DHT22;5198;52.382;9.020;2022-08-19T04:08:21;18.20;96.40
10306;DHT22;5198;52.382;9.020;2022-08-19T04:12:24;18.20;96.30
10306;DHT22;5198;52.382;9.020;2022-08-19T04:16:27;18.10;96.40
10306;DHT22;5198;52.382;9.020;2022-08-19T04:20:39;18.20;95.90
10306;DHT22;5198;52.382;9.020;2022-08-19T04:24:43;18.20;95.70
10306;DHT22;5198;52.382;9.020;2022-08-19T04:28:46;18.10;96.50
10306;DHT22;5198;52.382;9.020;2022-08-19T04:32:50;18.10;97.30
10306;DHT22;5198;52.382;9.020;2022-08-19T04:36:56;18.10;97.70
10306;DHT22;5198;52.382;9.020;2022-08-19T04:41:02;18.10;98.90
10306;DHT22;5198;52.382;9.020;2022-08-19T04:45:22;18.10;98.90
10306;DHT22;5198;52.382;9.020;2022-08-19T04:49:25;18.10;98.80
10306;DHT22;5198;52.382;9.020;2022-08-19T04:53:29;18.00;99.60
10306;DHT22;5198;52.382;9.020;2022-08-19T04:57:39;18.00;98.20
10306;DHT22;5198;52.382;9.020;2022-08-19T05:01:43;17.90;97.40
10306;DHT22;5198;52.382;9.020;2022-08-19T05:05:48;17.90;97.30
10306;DHT22;5198;52.382;9.020;2022-08-19T05:09:51;17.90;97.00
10306;DHT22;5198;52.382;9.020;2022-08-19T05:14:00;17.90;97.50
10306;DHT22;5198;52.382;9.020;2022-08-19T05:18:03;18.00;97.40
10306;DHT22;5198;52.382;9.020;2022-08-19T05:22:24;18.00;98.30
10306;DHT22;5198;52.382;9.020;2022-08-19T05:26:37;18.00;97.00
10306;DHT22;5198;52.382;9.020;2022-08-19T05:30:42;18.10;96.90
10306;DHT22;5198;52.382;9.020;2022-08-19T05:34:48;18.10;97.10
10306;DHT22;5198;52.382;9.020;2022-08-19T05:38:51;18.10;97.80
10306;DHT22;5198;52.382;9.020;2022-08-19T05:42:54;18.10;96.90
10306;DHT22;5198;52.382;9.020;2022-08-19T05:46:59;18.20;96.80
10306;DHT22;5198;52.382;9.020;2022-08-19T05:51:03;18.20;98.60
10306;DHT22;5198;52.382;9.020;2022-08-19T05:55:07;18.30;98.60
10306;DHT22;5198;52.382;9.020;2022-08-19T05:59:10;18.40;98.80
10306;DHT22;5198;52.382;9.020;2022-08-19T06:03:15;18.40;98.70
10306;DHT22;5198;52.382;9.020;2022-08-19T06:07:18;18.50;97.70
10306;DHT22;5198;52.382;9.020;2022-08-19T06:11:23;18.60;99.20
10306;DHT22;5198;52.382;9.020;2022-08-19T06:15:26;18.70;99.90
10306;DHT22;5198;52.382;9.020;2022-08-19T06:19:30;18.70;99.90
10306;DHT22;5198;52.382;9.020;2022-08-19T06:23:33;18.80;99.30
10306;DHT22;5198;52.382;9.020;2022-08-19T06:27:37;18.80;99.10
10306;DHT22;5198;52.382;9.020;2022-08-19T06:31:59;18.90;99.90
10306;DHT22;5198;52.382;9.020;2022-08-19T06:36:04;19.00;98.90
10306;DHT22;5198;52.382;9.020;2022-08-19T06:40:07;19.00;99.90
10306;DHT22;5198;52.382;9.020;2022-08-19T06:44:12;19.10;99.90
10306;DHT22;5198;52.382;9.020;2022-08-19T06:48:17;19.10;99.50
10306;DHT22;5198;52.382;9.020;2022-08-19T06:52:21;19.20;99.70
10306;DHT22;5198;52.382;9.020;2022-08-19T06:56:26;19.20;99.80
10306;DHT22;5198;52.382;9.020;2022-08-19T07:00:32;19.30;99.90
10306;DHT22;5198;52.382;9.020;2022-08-19T07:04:36;19.40;99.90
10306;DHT22;5198;52.382;9.020;2022-08-19T07:08:44;19.40;99.90
10306;DHT22;5198;52.382;9.020;2022-08-19T07:12:48;19.40;99.10
10306;DHT22;5198;52.382;9.020;2022-08-19T07:16:53;19.40;98.60
10306;DHT22;5198;52.382;9.020;2022-08-19T07:21:01;19.50;99.20
10306;DHT22;5198;52.382;9.020;2022-08-19T07:25:06;19.50;99.30
10306;DHT22;5198;52.382;9.020;2022-08-19T07:29:10;19.60;99.90
10306;DHT22;5198;52.382;9.020;2022-08-19T07:33:14;19.60;99.90
10306;DHT22;5198;52.382;9.020;2022-08-19T07:37:18;19.60;99.90
10306;DHT22;5198;52.382;9.020;2022-08-19T07:41:23;19.70;99.80
10306;DHT22;5198;52.382;9.020;2022-08-19T07:45:26;19.80;99.90
10306;DHT22;5198;52.382;9.020;2022-08-19T07:49:29;19.90;99.90
10306;DHT22;5198;52.382;9.020;2022-08-19T07:53:33;20.10;99.90
10306;DHT22;5198;52.382;9.020;2022-08-19T07:57:41;20.10;99.90
10306;DHT22;5198;52.382;9.020;2022-08-19T08:01:49;20.20;99.90
10306;DHT22;5198;52.382;9.020;2022-08-19T08:05:52;20.40;99.90
10306;DHT22;5198;52.382;9.020;2022-08-19T08:10:13;20.40;99.60
10306;DHT22;5198;52.382;9.020;2022-08-19T08:14:24;20.50;99.90
10306;DHT22;5198;52.382;9.020;2022-08-19T08:18:35;20.70;99.90
10306;DHT22;5198;52.382;9.020;2022-08-19T08:22:43;20.80;99.70
10306;DHT22;5198;52.382;9.020;2022-08-19T08:27:18;21.00;99.90
10306;DHT22;5198;52.382;9.020;2022-08-19T08:31:28;21.10;99.90
10306;DHT22;5198;52.382;9.020;2022-08-19T08:35:31;21.20;99.50
10306;DHT22;5198;52.382;9.020;2022-08-19T08:39:34;21.20;99.10
10306;DHT22;5198;52.382;9.020;2022-08-19T08:43:38;21.30;99.70
10306;DHT22;5198;52.382;9.020;2022-08-19T08:47:45;21.40;99.80
10306;DHT22;5198;52.382;9.020;2022-08-19T08:51:51;21.50;99.90
10306;DHT22;5198;52.382;9.020;2022-08-19T08:56:00;21.50;99.30
10306;DHT22;5198;52.382;9.020;2022-08-19T09:00:06;21.60;99.90
10306;DHT22;5198;52.382;9.020;2022-08-19T09:04:17;21.80;99.80
10306;DHT22;5198;52.382;9.020;2022-08-19T09:08:22;22.00;99.90
10306;DHT22;5198;52.382;9.020;2022-08-19T09:12:31;22.30;99.90
10306;DHT22;5198;52.382;9.020;2022-08-19T09:16:36;22.50;99.60
10306;DHT22;5198;52.382;9.020;2022-08-19T09:20:43;22.80;99.70
10306;DHT22;5198;52.382;9.020;2022-08-19T09:24:46;23.10;99.70
10306;DHT22;5198;52.382;9.020;2022-08-19T09:32:52;23.70;99.10
10306;DHT22;5198;52.382;9.020;2022-08-19T09:36:58;23.90;99.10
10306;DHT22;5198;52.382;9.020;2022-08-19T09:41:02;24.10;99.20
10306;DHT22;5198;52.382;9.020;2022-08-19T09:45:07;24.50;99.00
10306;DHT22;5198;52.382;9.020;2022-08-19T09:49:10;24.60;99.00
10306;DHT22;5198;52.382;9.020;2022-08-19T09:53:15;24.90;98.70
10306;DHT22;5198;52.382;9.020;2022-08-19T09:57:18;25.60;98.50
10306;DHT22;5198;52.382;9.020;2022-08-19T10:01:21;25.70;98.80
10306;DHT22;5198;52.382;9.020;2022-08-19T10:05:24;26.00;97.90
10306;DHT22;5198;52.382;9.020;2022-08-19T10:09:50;26.10;98.40
10306;DHT22;5198;52.382;9.020;2022-08-19T10:13:53;26.40;98.90
10306;DHT22;5198;52.382;9.020;2022-08-19T10:17:56;26.70;98.50
10306;DHT22;5198;52.382;9.020;2022-08-19T10:22:04;27.10;97.60
10306;DHT22;5198;52.382;9.020;2022-08-19T10:26:15;27.20;97.30
10306;DHT22;5198;52.382;9.020;2022-08-19T10:30:19;27.30;97.80
10306;DHT22;5198;52.382;9.020;2022-08-19T10:34:25;27.50;97.50
10306;DHT22;5198;52.382;9.020;2022-08-19T10:38:29;27.70;96.90
10306;DHT22;5198;52.382;9.020;2022-08-19T10:42:34;27.90;96.30
10306;DHT22;5198;52.382;9.020;2022-08-19T10:46:38;28.10;96.50
10306;DHT22;5198;52.382;9.020;2022-08-19T10:50:48;28.20;96.40
10306;DHT22;5198;52.382;9.020;2022-08-19T10:55:08;28.40;93.80
10306;DHT22;5198;52.382;9.020;2022-08-19T10:59:31;28.50;94.00
10306;DHT22;5198;52.382;9.020;2022-08-19T11:03:36;28.60;94.70
10306;DHT22;5198;52.382;9.020;2022-08-19T11:07:40;28.80;95.20
10306;DHT22;5198;52.382;9.020;2022-08-19T11:11:44;28.90;94.00
10306;DHT22;5198;52.382;9.020;2022-08-19T11:15:57;29.10;94.00
10306;DHT22;5198;52.382;9.020;2022-08-19T11:20:08;29.20;91.80
10306;DHT22;5198;52.382;9.020;2022-08-19T11:24:12;29.40;93.10
10306;DHT22;5198;52.382;9.020;2022-08-19T11:28:17;29.50;93.60
10306;DHT22;5198;52.382;9.020;2022-08-19T11:32:21;29.60;92.00
10306;DHT22;5198;52.382;9.020;2022-08-19T11:36:24;29.70;90.90
10306;DHT22;5198;52.382;9.020;2022-08-19T11:40:27;29.80;90.10
10306;DHT22;5198;52.382;9.020;2022-08-19T11:44:30;30.00;91.40
10306;DHT22;5198;52.382;9.020;2022-08-19T11:48:38;30.10;89.10
10306;DHT22;5198;52.382;9.020;2022-08-19T11:52:43;30.20;87.40
10306;DHT22;5198;52.382;9.020;2022-08-19T11:56:47;30.30;91.50
10306;DHT22;5198;52.382;9.020;2022-08-19T12:00:50;30.40;89.50
10306;DHT22;5198;52.382;9.020;2022-08-19T12:04:54;30.60;86.00
10306;DHT22;5198;52.382;9.020;2022-08-19T12:08:58;30.70;87.30
10306;DHT22;5198;52.382;9.020;2022-08-19T12:13:02;30.70;89.10
10306;DHT22;5198;52.382;9.020;2022-08-19T12:17:05;30.80;90.00
10306;DHT22;5198;52.382;9.020;2022-08-19T12:21:11;30.90;85.30
10306;DHT22;5198;52.382;9.020;2022-08-19T12:25:15;31.00;89.10
10306;DHT22;5198;52.382;9.020;2022-08-19T12:29:21;31.10;88.50
10306;DHT22;5198;52.382;9.020;2022-08-19T12:33:30;31.10;83.50
10306;DHT22;5198;52.382;9.020;2022-08-19T12:41:59;31.20;86.20
10306;DHT22;5198;52.382;9.020;2022-08-19T12:46:03;31.40;89.90
10306;DHT22;5198;52.382;9.020;2022-08-19T12:50:11;31.40;81.40
10306;DHT22;5198;52.382;9.020;2022-08-19T12:54:14;31.50;82.10
10306;DHT22;5198;52.382;9.020;2022-08-19T12:58:18;31.50;80.90
10306;DHT22;5198;52.382;9.020;2022-08-19T13:02:27;31.50;84.10
10306;DHT22;5198;52.382;9.020;2022-08-19T13:06:30;31.40;82.60
10306;DHT22;5198;52.382;9.020;2022-08-19T13:10:33;31.40;85.00
10306;DHT22;5198;52.382;9.020;2022-08-19T13:14:38;31.40;81.50
10306;DHT22;5198;52.382;9.020;2022-08-19T13:18:42;31.40;82.90
10306;DHT22;5198;52.382;9.020;2022-08-19T13:22:45;31.40;81.00
10306;DHT22;5198;52.382;9.020;2022-08-19T13:26:49;31.40;81.10
10306;DHT22;5198;52.382;9.020;2022-08-19T13:30:53;31.40;83.50
10306;DHT22;5198;52.382;9.020;2022-08-19T13:35:14;31.40;83.80
10306;DHT22;5198;52.382;9.020;2022-08-19T13:39:17;31.30;82.80
10306;DHT22;5198;52.382;9.020;2022-08-19T13:43:25;31.30;83.80
10306;DHT22;5198;52.382;9.020;2022-08-19T13:47:30;31.30;81.50
10306;DHT22;5198;52.382;9.020;2022-08-19T13:51:33;31.40;83.90
10306;DHT22;5198;52.382;9.020;2022-08-19T13:55:37;31.30;78.80
10306;DHT22;5198;52.382;9.020;2022-08-19T13:59:40;31.30;80.20
10306;DHT22;5198;52.382;9.020;2022-08-19T14:03:45;31.20;80.20
10306;DHT22;5198;52.382;9.020;2022-08-19T14:07:48;31.10;81.50
10306;DHT22;5198;52.382;9.020;2022-08-19T14:11:51;31.10;83.40
10306;DHT22;5198;52.382;9.020;2022-08-19T14:15:54;31.20;81.20
10306;DHT22;5198;52.382;9.020;2022-08-19T14:19:58;31.20;81.60
10306;DHT22;5198;52.382;9.020;2022-08-19T14:24:11;31.20;79.30
10306;DHT22;5198;52.382;9.020;2022-08-19T14:28:15;31.30;81.70
10306;DHT22;5198;52.382;9.020;2022-08-19T14:32:18;31.40;79.50
10306;DHT22;5198;52.382;9.020;2022-08-19T14:36:22;31.40;79.10
10306;DHT22;5198;52.382;9.020;2022-08-19T14:40:26;31.40;82.50
10306;DHT22;5198;52.382;9.020;2022-08-19T14:44:30;31.50;79.00
10306;DHT22;5198;52.382;9.020;2022-08-19T14:48:35;31.60;81.70
10306;DHT22;5198;52.382;9.020;2022-08-19T14:52:43;31.70;78.80
10306;DHT22;5198;52.382;9.020;2022-08-19T14:56:46;31.80;80.40
10306;DHT22;5198;52.382;9.020;2022-08-19T15:00:49;31.80;76.40
10306;DHT22;5198;52.382;9.020;2022-08-19T15:04:52;31.80;77.40
10306;DHT22;5198;52.382;9.020;2022-08-19T15:09:00;31.80;77.10
10306;DHT22;5198;52.382;9.020;2022-08-19T15:13:05;31.80;77.30
10306;DHT22;5198;52.382;9.020;2022-08-19T15:17:08;31.70;75.40
10306;DHT22;5198;52.382;9.020;2022-08-19T15:21:11;31.70;77.90
10306;DHT22;5198;52.382;9.020;2022-08-19T15:25:17;31.70;79.40
10306;DHT22;5198;52.382;9.020;2022-08-19T15:29:21;31.80;80.50
10306;DHT22;5198;52.382;9.020;2022-08-19T15:33:25;31.90;77.20
10306;DHT22;5198;52.382;9.020;2022-08-19T15:37:30;32.00;80.20
10306;DHT22;5198;52.382;9.020;2022-08-19T15:45:45;32.20;76.40
10306;DHT22;5198;52.382;9.020;2022-08-19T15:49:50;32.30;79.70
10306;DHT22;5198;52.382;9.020;2022-08-19T15:53:53;32.30;74.50
10306;DHT22;5198;52.382;9.020;2022-08-19T15:57:56;32.20;74.50
10306;DHT22;5198;52.382;9.020;2022-08-19T16:02:30;32.00;75.40
10306;DHT22;5198;52.382;9.020;2022-08-19T16:06:55;31.80;77.20
10306;DHT22;5198;52.382;9.020;2022-08-19T16:10:58;31.70;77.30
10306;DHT22;5198;52.382;9.020;2022-08-19T16:15:01;31.70;78.90
10306;DHT22;5198;52.382;9.020;2022-08-19T16:19:06;31.60;77.30
10306;DHT22;5198;52.382;9.020;2022-08-19T16:23:11;31.50;75.30
10306;DHT22;5198;52.382;9.020;2022-08-19T16:27:14;31.30;75.40
10306;DHT22;5198;52.382;9.020;2022-08-19T16:31:17;31.20;77.10
10306;DHT22;5198;52.382;9.020;2022-08-19T16:35:21;31.10;77.00
10306;DHT22;5198;52.382;9.020;2022-08-19T16:39:24;31.00;75.30
10306;DHT22;5198;52.382;9.020;2022-08-19T16:43:28;31.10;78.60
10306;DHT22;5198;52.382;9.020;2022-08-19T16:47:32;31.20;76.70
10306;DHT22;5198;52.382;9.020;2022-08-19T16:51:37;31.30;78.70
10306;DHT22;5198;52.382;9.020;2022-08-19T16:55:40;31.40;79.70
10306;DHT22;5198;52.382;9.020;2022-08-19T16:59:43;31.40;78.60
10306;DHT22;5198;52.382;9.020;2022-08-19T17:03:49;31.30;78.00
10306;DHT22;5198;52.382;9.020;2022-08-19T17:07:54;31.20;76.10
10306;DHT22;5198;52.382;9.020;2022-08-19T17:11:58;31.10;78.50
10306;DHT22;5198;52.382;9.020;2022-08-19T17:16:02;31.00;77.90
10306;DHT22;5198;52.382;9.020;2022-08-19T17:20:05;30.90;78.90
10306;DHT22;5198;52.382;9.020;2022-08-19T17:24:10;30.70;78.80
10306;DHT22;5198;52.382;9.020;2022-08-19T17:28:14;30.50;78.10
10306;DHT22;5198;52.382;9.020;2022-08-19T17:32:17;30.20;78.50
10306;DHT22;5198;52.382;9.020;2022-08-19T17:36:26;30.00;78.30
10306;DHT22;5198;52.382;9.020;2022-08-19T17:40:31;29.70;78.80
10306;DHT22;5198;52.382;9.020;2022-08-19T17:44:34;29.60;79.70
10306;DHT22;5198;52.382;9.020;2022-08-19T17:48:37;29.40;79.30
10306;DHT22;5198;52.382;9.020;2022-08-19T17:52:40;29.30;79.90
10306;DHT22;5198;52.382;9.020;2022-08-19T17:56:44;29.10;79.50
10306;DHT22;5198;52.382;9.020;2022-08-19T18:00:47;28.80;79.00
10306;DHT22;5198;52.382;9.020;2022-08-19T18:04:54;28.50;79.40
10306;DHT22;5198;52.382;9.020;2022-08-19T18:08:57;28.50;80.10
10306;DHT22;5198;52.382;9.020;2022-08-19T18:13:02;28.40;80.40
10306;DHT22;5198;52.382;9.020;2022-08-19T18:17:18;28.20;80.60
10306;DHT22;5198;52.382;9.020;2022-08-19T18:21:23;28.00;80.80
10306;DHT22;5198;52.382;9.020;2022-08-19T18:25:32;27.90;81.00
10306;DHT22;5198;52.382;9.020;2022-08-19T18:29:36;27.70;80.70
10306;DHT22;5198;52.382;9.020;2022-08-19T18:33:40;27.80;80.80
10306;DHT22;5198;52.382;9.020;2022-08-19T18:37:45;27.40;80.60
10306;DHT22;5198;52.382;9.020;2022-08-19T18:41:48;27.30;81.20
10306;DHT22;5198;52.382;9.020;2022-08-19T18:46:10;27.20;81.30
10306;DHT22;5198;52.382;9.020;2022-08-19T18:50:37;27.00;81.40
10306;DHT22;5198;52.382;9.020;2022-08-19T18:54:42;26.90;81.60
10306;DHT22;5198;52.382;9.020;2022-08-19T18:58:47;26.70;81.70
10306;DHT22;5198;52.382;9.020;2022-08-19T19:02:52;26.60;81.90
10306;DHT22;5198;52.382;9.020;2022-08-19T19:06:55;26.40;82.20
10306;DHT22;5198;52.382;9.020;2022-08-19T19:10:58;26.30;82.30
10306;DHT22;5198;52.382;9.020;2022-08-19T19:15:05;26.10;82.50
10306;DHT22;5198;52.382;9.020;2022-08-19T19:19:10;26.00;82.60
10306;DHT22;5198;52.382;9.020;2022-08-19T19:23:20;25.90;82.90
10306;DHT22;5198;52.382;9.020;2022-08-19T19:27:22;25.70;82.90
10306;DHT22;5198;52.382;9.020;2022-08-19T19:31:25;25.60;83.00
10306;DHT22;5198;52.382;9.020;2022-08-19T19:39:34;25.30;82.30
10306;DHT22;5198;52.382;9.020;2022-08-19T19:43:47;25.20;82.60
10306;DHT22;5198;52.382;9.020;2022-08-19T19:48:10;25.10;82.50
10306;DHT22;5198;52.382;9.020;2022-08-19T19:52:16;25.00;83.10
10306;DHT22;5198;52.382;9.020;2022-08-19T19:56:20;24.90;84.50
10306;DHT22;5198;52.382;9.020;2022-08-19T20:00:24;24.80;84.10
10306;DHT22;5198;52.382;9.020;2022-08-19T20:04:27;24.70;84.10
10306;DHT22;5198;52.382;9.020;2022-08-19T20:08:30;24.60;83.70
10306;DHT22;5198;52.382;9.020;2022-08-19T20:12:51;24.60;83.90
10306;DHT22;5198;52.382;9.020;2022-08-19T20:16:55;24.40;83.90
10306;DHT22;5198;52.382;9.020;2022-08-19T20:20:58;24.30;84.70
10306;DHT22;5198;52.382;9.020;2022-08-19T20:25:01;24.30;85.00
10306;DHT22;5198;52.382;9.020;2022-08-19T20:29:05;24.20;86.10
10306;DHT22;5198;52.382;9.020;2022-08-19T20:33:28;24.10;85.10
10306;DHT22;5198;52.382;9.020;2022-08-19T20:37:31;24.00;85.10
10306;DHT22;5198;52.382;9.020;2022-08-19T20:41:35;24.00;85.50
10306;DHT22;5198;52.382;9.020;2022-08-19T20:45:39;23.90;85.90
10306;DHT22;5198;52.382;9.020;2022-08-19T20:49:42;23.80;85.90
10306;DHT22;5198;52.382;9.020;2022-08-19T20:53:46;23.70;86.40
10306;DHT22;5198;52.382;9.020;2022-08-19T20:57:49;23.70;86.20
10306;DHT22;5198;52.382;9.020;2022-08-19T21:01:53;23.60;86.40
10306;DHT22;5198;52.382;9.020;2022-08-19T21:05:56;23.50;87.20
10306;DHT22;5198;52.382;9.020;2022-08-19T21:09:59;23.50;87.70
10306;DHT22;5198;52.382;9.020;2022-08-19T21:14:05;23.40;86.30
10306;DHT22;5198;52.382;9.020;2022-08-19T21:18:09;23.30;87.10
10306;DHT22;5198;52.382;9.020;2022-08-19T21:22:12;23.20;87.50
10306;DHT22;5198;52.382;9.020;2022-08-19T21:26:15;23.10;86.60
10306;DHT22;5198;52.382;9.020;2022-08-19T21:30:18;23.00;86.40
10306;DHT22;5198;52.382;9.020;2022-08-19T21:34:22;23.00;86.90
10306;DHT22;5198;52.382;9.020;2022-08-19T21:38:26;22.90;88.00
10306;DHT22;5198;52.382;9.020;2022-08-19T21:42:29;22.90;87.00
10306;DHT22;5198;52.382;9.020;2022-08-19T21:46:31;22.80;86.80
10306;DHT22;5198;52.382;9.020;2022-08-19T21:50:36;22.80;86.60
10306;DHT22;5198;52.382;9.020;2022-08-19T21:54:39;22.80;86.80
10306;DHT22;5198;52.382;9.020;2022-08-19T21:58:42;22.80;86.70
10306;DHT22;5198;52.382;9.020;2022-08-19T22:02:45;22.80;87.00
10306;DHT22;5198;52.382;9.020;2022-08-19T22:06:49;22.80;87.20
10306;DHT22;5198;52.382;9.020;2022-08-19T22:10:52;22.70;86.90
10306;DHT22;5198;52.382;9.020;2022-08-19T22:14:56;22.70;86.70
10306;DHT22;5198;52.382;9.020;2022-08-19T22:18:59;22.70;87.00
10306;DHT22;5198;52.382;9.020;2022-08-19T22:23:04;22.70;87.30
10306;DHT22;5198;52.382;9.020;2022-08-19T22:27:07;22.60;88.20
10306;DHT22;5198;52.382;9.020;2022-08-19T22:31:10;22.60;89.40
10306;DHT22;5198;52.382;9.020;2022-08-19T22:35:14;22.60;88.50
10306;DHT22;5198;52.382;9.020;2022-08-19T22:39:20;22.60;88.90
10306;DHT22;5198;52.382;9.020;2022-08-19T22:43:23;22.50;88.80
10306;DHT22;5198;52.382;9.020;2022-08-19T22:47:26;22.60;90.20
10306;DHT22;5198;52.382;9.020;2022-08-19T22:51:32;22.50;89.60
10306;DHT22;5198;52.382;9.020;2022-08-19T22:55:54;22.50;88.80
10306;DHT22;5198;52.382;9.020;2022-08-19T22:59:57;22.50;89.00
10306;DHT22;5198;52.382;9.020;2022-08-19T23:04:02;22.50;88.30
10306;DHT22;5198;52.382;9.020;2022-08-19T23:08:06;22.50;89.30
10306;DHT22;5198;52.382;9.020;2022-08-19T23:12:10;22.50;90.40
10306;DHT22;5198;52.382;9.020;2022-08-19T23:16:14;22.40;90.30
10306;DHT22;5198;52.382;9.020;2022-08-19T23:20:17;22.40;90.60
10306;DHT22;5198;52.382;9.020;2022-08-19T23:24:20;22.40;90.50
10306;DHT22;5198;52.382;9.020;2022-08-19T23:28:25;22.40;91.50
10306;DHT22;5198;52.382;9.020;2022-08-19T23:32:45;22.40;91.40
10306;DHT22;5198;52.382;9.020;2022-08-19T23:36:48;22.40;92.00
10306;DHT22;5198;52.382;9.020;2022-08-19T23:40:52;22.30;92.20
10306;DHT22;5198;52.382;9.020;2022-08-19T23:44:59;22.30;92.10
10306;DHT22;5198;52.382;9.020;2022-08-19T23:49:04;22.30;91.30
10306;DHT22;5198;52.382;9.020;2022-08-19T23:53:07;22.20;91.30
10306;DHT22;5198;52.382;9.020;2022-08-19T23:57:14;22.20;91.10
